sensor_id;sensor_type;location;lat;lon;timestamp;P1;durP1;ratioP1;P2;durP2;ratioP2
43877;SDS011;29815;48.184;11.268;2023-06-19T00:00:21;13.05;;;10.75;;
43877;SDS011;29815;48.184;11.268;2023-06-19T00:02:52;13.25;;;11.70;;
43877;SDS011;29815;48.184;11.268;2023-06-19T00:05:22;15.13;;;12.55;;
43877;SDS011;29815;48.184;11.268;2023-06-19T00:07:52;13.40;;;11.98;;
43877;SDS011;29815;48.184;11.268;2023-06-19T00:10:22;14.88;;;11.88;;
43877;SDS011;29815;48.184;11.268;2023-06-19T00:12:52;13.68;;;11.80;;
43877;SDS011;29815;48.184;11.268;2023-06-19T00:15:22;12.30;;;11.10;;
43877;SDS011;29815;48.184;11.268;2023-06-19T00:17:53;15.10;;;12.07;;
43877;SDS011;29815;48.184;11.268;2023-06-19T00:20:23;13.30;;;11.32;;
43877;SDS011;29815;48.184;11.268;2023-06-19T00:22:53;13.00;;;11.68;;
43877;SDS011;29815;48.184;11.268;2023-06-19T00:25:22;14.27;;;12.63;;
43877;SDS011;29815;48.184;11.268;2023-06-19T00:27:52;12.10;;;10.82;;
43877;SDS011;29815;48.184;11.268;2023-06-19T00:30:21;14.68;;;11.90;;
43877;SDS011;29815;48.184;11.268;2023-06-19T00:32:54;13.20;;;11.88;;
43877;SDS011;29815;48.184;11.268;2023-06-19T00:35:24;12.30;;;11.10;;
43877;SDS011;29815;48.184;11.268;2023-06-19T00:37:55;11.60;;;10.45;;
43877;SDS011;29815;48.184;11.268;2023-06-19T00:40:28;12.50;;;11.30;;
43877;SDS011;29815;48.184;11.268;2023-06-19T00:43:01;11.43;;;10.23;;
43877;SDS011;29815;48.184;11.268;2023-06-19T00:45:31;10.90;;;9.77;;
43877;SDS011;29815;48.184;11.268;2023-06-19T00:48:02;11.77;;;10.60;;
43877;SDS011;29815;48.184;11.268;2023-06-19T00:50:33;12.15;;;11.00;;
43877;SDS011;29815;48.184;11.268;2023-06-19T00:53:04;10.65;;;9.55;;
43877;SDS011;29815;48.184;11.268;2023-06-19T00:55:35;11.57;;;10.48;;
43877;SDS011;29815;48.184;11.268;2023-06-19T00:58:08;12.95;;;10.32;;
43877;SDS011;29815;48.184;11.268;2023-06-19T01:00:38;14.52;;;10.48;;
43877;SDS011;29815;48.184;11.268;2023-06-19T01:03:20;10.90;;;9.88;;
43877;SDS011;29815;48.184;11.268;2023-06-19T01:05:50;12.18;;;10.82;;
43877;SDS011;29815;48.184;11.268;2023-06-19T01:11:12;11.93;;;10.73;;
43877;SDS011;29815;48.184;11.268;2023-06-19T01:13:55;13.73;;;10.70;;
43877;SDS011;29815;48.184;11.268;2023-06-19T01:16:29;14.77;;;10.40;;
43877;SDS011;29815;48.184;11.268;2023-06-19T01:19:03;12.20;;;10.60;;
43877;SDS011;29815;48.184;11.268;2023-06-19T01:21:34;11.65;;;10.45;;
43877;SDS011;29815;48.184;11.268;2023-06-19T01:24:06;11.02;;;10.00;;
43877;SDS011;29815;48.184;11.268;2023-06-19T01:26:35;11.07;;;9.98;;
43877;SDS011;29815;48.184;11.268;2023-06-19T01:29:05;12.45;;;10.80;;
43877;SDS011;29815;48.184;11.268;2023-06-19T01:31:35;11.85;;;10.73;;
43877;SDS011;29815;48.184;11.268;2023-06-19T01:34:13;11.65;;;10.13;;
43877;SDS011;29815;48.184;11.268;2023-06-19T01:39:18;11.63;;;10.48;;
43877;SDS011;29815;48.184;11.268;2023-06-19T01:41:48;12.40;;;11.10;;
43877;SDS011;29815;48.184;11.268;2023-06-19T01:44:19;12.00;;;10.70;;
43877;SDS011;29815;48.184;11.268;2023-06-19T01:46:49;13.25;;;10.90;;
43877;SDS011;29815;48.184;11.268;2023-06-19T01:49:19;11.68;;;10.50;;
43877;SDS011;29815;48.184;11.268;2023-06-19T01:51:49;11.02;;;9.93;;
43877;SDS011;29815;48.184;11.268;2023-06-19T01:54:20;11.40;;;10.32;;
43877;SDS011;29815;48.184;11.268;2023-06-19T01:56:50;11.98;;;10.80;;
43877;SDS011;29815;48.184;11.268;2023-06-19T01:59:19;11.77;;;10.68;;
43877;SDS011;29815;48.184;11.268;2023-06-19T02:01:49;11.23;;;10.15;;
43877;SDS011;29815;48.184;11.268;2023-06-19T02:04:19;11.18;;;10.18;;
43877;SDS011;29815;48.184;11.268;2023-06-19T02:06:48;11.68;;;10.52;;
43877;SDS011;29815;48.184;11.268;2023-06-19T02:09:18;11.27;;;10.00;;
43877;SDS011;29815;48.184;11.268;2023-06-19T02:11:49;12.30;;;11.02;;
43877;SDS011;29815;48.184;11.268;2023-06-19T02:14:19;12.00;;;10.80;;
43877;SDS011;29815;48.184;11.268;2023-06-19T02:16:49;12.18;;;11.02;;
43877;SDS011;29815;48.184;11.268;2023-06-19T02:19:18;12.25;;;11.02;;
43877;SDS011;29815;48.184;11.268;2023-06-19T02:21:49;11.77;;;10.70;;
43877;SDS011;29815;48.184;11.268;2023-06-19T02:24:18;10.60;;;9.63;;
43877;SDS011;29815;48.184;11.268;2023-06-19T02:26:50;10.80;;;9.18;;
43877;SDS011;29815;48.184;11.268;2023-06-19T02:29:19;12.98;;;11.68;;
43877;SDS011;29815;48.184;11.268;2023-06-19T02:31:49;10.93;;;9.82;;
43877;SDS011;29815;48.184;11.268;2023-06-19T02:34:19;11.77;;;10.60;;
43877;SDS011;29815;48.184;11.268;2023-06-19T02:36:51;10.93;;;9.82;;
43877;SDS011;29815;48.184;11.268;2023-06-19T02:39:22;11.70;;;10.70;;
43877;SDS011;29815;48.184;11.268;2023-06-19T02:41:52;11.35;;;10.20;;
43877;SDS011;29815;48.184;11.268;2023-06-19T02:44:22;11.50;;;10.40;;
43877;SDS011;29815;48.184;11.268;2023-06-19T02:46:51;12.52;;;10.77;;
43877;SDS011;29815;48.184;11.268;2023-06-19T02:49:21;11.82;;;10.15;;
43877;SDS011;29815;48.184;11.268;2023-06-19T02:51:50;12.30;;;10.93;;
43877;SDS011;29815;48.184;11.268;2023-06-19T02:54:20;13.18;;;11.88;;
43877;SDS011;29815;48.184;11.268;2023-06-19T02:56:52;16.13;;;10.53;;
43877;SDS011;29815;48.184;11.268;2023-06-19T02:59:22;11.20;;;10.10;;
43877;SDS011;29815;48.184;11.268;2023-06-19T03:01:52;12.50;;;11.23;;
43877;SDS011;29815;48.184;11.268;2023-06-19T03:04:21;13.15;;;11.93;;
43877;SDS011;29815;48.184;11.268;2023-06-19T03:06:55;12.02;;;10.82;;
43877;SDS011;29815;48.184;11.268;2023-06-19T03:09:27;12.45;;;11.23;;
43877;SDS011;29815;48.184;11.268;2023-06-19T03:11:56;12.45;;;11.27;;
43877;SDS011;29815;48.184;11.268;2023-06-19T03:14:26;15.65;;;12.18;;
43877;SDS011;29815;48.184;11.268;2023-06-19T03:16:56;14.10;;;11.75;;
43877;SDS011;29815;48.184;11.268;2023-06-19T03:19:26;15.02;;;11.23;;
43877;SDS011;29815;48.184;11.268;2023-06-19T03:21:55;12.65;;;11.50;;
43877;SDS011;29815;48.184;11.268;2023-06-19T03:24:26;12.80;;;11.35;;
43877;SDS011;29815;48.184;11.268;2023-06-19T03:27:10;12.77;;;11.48;;
43877;SDS011;29815;48.184;11.268;2023-06-19T03:29:39;14.50;;;11.80;;
43877;SDS011;29815;48.184;11.268;2023-06-19T03:32:11;13.27;;;11.93;;
43877;SDS011;29815;48.184;11.268;2023-06-19T03:34:41;13.27;;;11.98;;
43877;SDS011;29815;48.184;11.268;2023-06-19T03:37:11;13.90;;;12.43;;
43877;SDS011;29815;48.184;11.268;2023-06-19T03:39:43;13.43;;;12.20;;
43877;SDS011;29815;48.184;11.268;2023-06-19T03:42:13;13.73;;;12.32;;
43877;SDS011;29815;48.184;11.268;2023-06-19T03:44:43;13.82;;;12.57;;
43877;SDS011;29815;48.184;11.268;2023-06-19T03:47:12;14.02;;;12.63;;
43877;SDS011;29815;48.184;11.268;2023-06-19T03:49:43;15.13;;;13.52;;
43877;SDS011;29815;48.184;11.268;2023-06-19T03:52:13;12.45;;;11.35;;
43877;SDS011;29815;48.184;11.268;2023-06-19T03:54:44;14.93;;;13.20;;
43877;SDS011;29815;48.184;11.268;2023-06-19T03:57:13;13.13;;;11.93;;
43877;SDS011;29815;48.184;11.268;2023-06-19T03:59:43;14.73;;;12.13;;
43877;SDS011;29815;48.184;11.268;2023-06-19T04:02:13;13.50;;;12.18;;
43877;SDS011;29815;48.184;11.268;2023-06-19T04:04:43;12.27;;;11.18;;
43877;SDS011;29815;48.184;11.268;2023-06-19T04:07:14;15.13;;;13.52;;
43877;SDS011;29815;48.184;11.268;2023-06-19T04:09:45;13.52;;;12.20;;
43877;SDS011;29815;48.184;11.268;2023-06-19T04:12:15;14.70;;;13.25;;
43877;SDS011;29815;48.184;11.268;2023-06-19T04:14:44;13.88;;;12.35;;
43877;SDS011;29815;48.184;11.268;2023-06-19T04:17:14;13.88;;;12.57;;
43877;SDS011;29815;48.184;11.268;2023-06-19T04:19:44;15.38;;;12.93;;
43877;SDS011;29815;48.184;11.268;2023-06-19T04:22:13;14.43;;;12.48;;
43877;SDS011;29815;48.184;11.268;2023-06-19T04:24:43;13.32;;;11.98;;
43877;SDS011;29815;48.184;11.268;2023-06-19T04:27:14;13.90;;;12.20;;
43877;SDS011;29815;48.184;11.268;2023-06-19T04:29:43;13.75;;;12.50;;
43877;SDS011;29815;48.184;11.268;2023-06-19T04:32:13;13.70;;;12.32;;
43877;SDS011;29815;48.184;11.268;2023-06-19T04:34:43;12.88;;;11.57;;
43877;SDS011;29815;48.184;11.268;2023-06-19T04:37:13;13.02;;;11.82;;
43877;SDS011;29815;48.184;11.268;2023-06-19T04:39:47;13.80;;;11.15;;
43877;SDS011;29815;48.184;11.268;2023-06-19T04:42:17;13.02;;;11.73;;
43877;SDS011;29815;48.184;11.268;2023-06-19T04:44:48;12.10;;;10.90;;
43877;SDS011;29815;48.184;11.268;2023-06-19T04:47:19;12.38;;;11.18;;
43877;SDS011;29815;48.184;11.268;2023-06-19T04:50:07;13.82;;;10.90;;
43877;SDS011;29815;48.184;11.268;2023-06-19T04:52:37;12.32;;;11.15;;
43877;SDS011;29815;48.184;11.268;2023-06-19T04:55:08;13.10;;;10.85;;
43877;SDS011;29815;48.184;11.268;2023-06-19T04:57:38;12.95;;;10.07;;
43877;SDS011;29815;48.184;11.268;2023-06-19T05:00:08;12.35;;;11.07;;
43877;SDS011;29815;48.184;11.268;2023-06-19T05:02:40;11.88;;;10.70;;
43877;SDS011;29815;48.184;11.268;2023-06-19T05:05:11;10.98;;;10.00;;
43877;SDS011;29815;48.184;11.268;2023-06-19T05:07:41;11.57;;;10.38;;
43877;SDS011;29815;48.184;11.268;2023-06-19T05:10:13;10.93;;;9.30;;
43877;SDS011;29815;48.184;11.268;2023-06-19T05:12:43;14.30;;;8.88;;
43877;SDS011;29815;48.184;11.268;2023-06-19T05:15:13;9.88;;;8.93;;
43877;SDS011;29815;48.184;11.268;2023-06-19T05:17:43;11.25;;;8.27;;
43877;SDS011;29815;48.184;11.268;2023-06-19T05:20:14;10.57;;;8.52;;
43877;SDS011;29815;48.184;11.268;2023-06-19T05:22:44;10.05;;;8.38;;
43877;SDS011;29815;48.184;11.268;2023-06-19T05:25:15;10.75;;;8.43;;
43877;SDS011;29815;48.184;11.268;2023-06-19T05:27:44;12.95;;;8.60;;
43877;SDS011;29815;48.184;11.268;2023-06-19T05:30:14;17.15;;;10.32;;
43877;SDS011;29815;48.184;11.268;2023-06-19T05:32:44;17.15;;;10.25;;
43877;SDS011;29815;48.184;11.268;2023-06-19T05:35:13;15.65;;;9.63;;
43877;SDS011;29815;48.184;11.268;2023-06-19T05:37:43;11.10;;;8.27;;
43877;SDS011;29815;48.184;11.268;2023-06-19T05:40:15;13.60;;;9.82;;
43877;SDS011;29815;48.184;11.268;2023-06-19T05:42:45;9.57;;;8.05;;
43877;SDS011;29815;48.184;11.268;2023-06-19T05:45:14;11.45;;;9.13;;
43877;SDS011;29815;48.184;11.268;2023-06-19T05:47:44;10.25;;;8.80;;
43877;SDS011;29815;48.184;11.268;2023-06-19T05:50:13;14.15;;;10.10;;
43877;SDS011;29815;48.184;11.268;2023-06-19T05:52:43;18.85;;;9.02;;
43877;SDS011;29815;48.184;11.268;2023-06-19T05:55:14;17.50;;;9.30;;
43877;SDS011;29815;48.184;11.268;2023-06-19T05:57:44;12.60;;;8.98;;
43877;SDS011;29815;48.184;11.268;2023-06-19T06:00:14;11.10;;;9.35;;
43877;SDS011;29815;48.184;11.268;2023-06-19T06:02:45;14.67;;;9.07;;
43877;SDS011;29815;48.184;11.268;2023-06-19T06:05:15;10.05;;;9.00;;
43877;SDS011;29815;48.184;11.268;2023-06-19T06:07:44;13.55;;;8.73;;
43877;SDS011;29815;48.184;11.268;2023-06-19T06:10:15;12.98;;;9.38;;
43877;SDS011;29815;48.184;11.268;2023-06-19T06:12:45;16.17;;;8.70;;
43877;SDS011;29815;48.184;11.268;2023-06-19T06:15:15;14.43;;;10.07;;
43877;SDS011;29815;48.184;11.268;2023-06-19T06:17:44;13.00;;;10.32;;
43877;SDS011;29815;48.184;11.268;2023-06-19T06:20:14;17.70;;;9.45;;
43877;SDS011;29815;48.184;11.268;2023-06-19T06:22:44;15.40;;;9.40;;
43877;SDS011;29815;48.184;11.268;2023-06-19T06:25:15;12.23;;;8.75;;
43877;SDS011;29815;48.184;11.268;2023-06-19T06:27:44;15.02;;;8.95;;
43877;SDS011;29815;48.184;11.268;2023-06-19T06:30:14;12.43;;;8.45;;
43877;SDS011;29815;48.184;11.268;2023-06-19T06:32:46;10.15;;;9.15;;
43877;SDS011;29815;48.184;11.268;2023-06-19T06:35:16;8.95;;;8.05;;
43877;SDS011;29815;48.184;11.268;2023-06-19T06:37:46;12.98;;;9.75;;
43877;SDS011;29815;48.184;11.268;2023-06-19T06:40:18;9.32;;;8.27;;
43877;SDS011;29815;48.184;11.268;2023-06-19T06:42:48;9.93;;;8.15;;
43877;SDS011;29815;48.184;11.268;2023-06-19T06:45:18;10.02;;;8.40;;
43877;SDS011;29815;48.184;11.268;2023-06-19T06:47:48;9.52;;;8.52;;
43877;SDS011;29815;48.184;11.268;2023-06-19T06:50:17;9.20;;;8.13;;
43877;SDS011;29815;48.184;11.268;2023-06-19T06:52:47;8.45;;;7.57;;
43877;SDS011;29815;48.184;11.268;2023-06-19T06:55:18;11.98;;;8.57;;
43877;SDS011;29815;48.184;11.268;2023-06-19T06:57:48;8.70;;;7.75;;
43877;SDS011;29815;48.184;11.268;2023-06-19T07:00:17;9.00;;;8.10;;
43877;SDS011;29815;48.184;11.268;2023-06-19T07:02:48;8.98;;;7.63;;
43877;SDS011;29815;48.184;11.268;2023-06-19T07:05:19;9.55;;;7.50;;
43877;SDS011;29815;48.184;11.268;2023-06-19T07:07:48;14.27;;;8.48;;
43877;SDS011;29815;48.184;11.268;2023-06-19T07:10:19;10.23;;;7.00;;
43877;SDS011;29815;48.184;11.268;2023-06-19T07:12:50;8.07;;;7.28;;
43877;SDS011;29815;48.184;11.268;2023-06-19T07:15:19;8.98;;;8.00;;
43877;SDS011;29815;48.184;11.268;2023-06-19T07:17:49;11.13;;;8.18;;
43877;SDS011;29815;48.184;11.268;2023-06-19T07:20:19;7.90;;;7.00;;
43877;SDS011;29815;48.184;11.268;2023-06-19T07:22:50;11.50;;;7.75;;
43877;SDS011;29815;48.184;11.268;2023-06-19T07:25:22;9.93;;;8.00;;
43877;SDS011;29815;48.184;11.268;2023-06-19T07:27:52;11.77;;;6.87;;
43877;SDS011;29815;48.184;11.268;2023-06-19T07:30:22;8.30;;;7.50;;
43877;SDS011;29815;48.184;11.268;2023-06-19T07:32:53;7.40;;;6.80;;
43877;SDS011;29815;48.184;11.268;2023-06-19T07:35:22;13.85;;;7.13;;
43877;SDS011;29815;48.184;11.268;2023-06-19T07:37:52;8.02;;;6.63;;
43877;SDS011;29815;48.184;11.268;2023-06-19T07:40:23;8.40;;;6.93;;
43877;SDS011;29815;48.184;11.268;2023-06-19T07:42:53;7.20;;;6.60;;
43877;SDS011;29815;48.184;11.268;2023-06-19T07:45:23;8.05;;;6.82;;
43877;SDS011;29815;48.184;11.268;2023-06-19T07:47:56;7.63;;;6.90;;
43877;SDS011;29815;48.184;11.268;2023-06-19T07:50:26;7.93;;;7.13;;
43877;SDS011;29815;48.184;11.268;2023-06-19T07:52:56;7.55;;;6.80;;
43877;SDS011;29815;48.184;11.268;2023-06-19T07:55:27;7.68;;;6.88;;
43877;SDS011;29815;48.184;11.268;2023-06-19T07:57:57;6.65;;;6.05;;
43877;SDS011;29815;48.184;11.268;2023-06-19T08:00:26;5.78;;;5.28;;
43877;SDS011;29815;48.184;11.268;2023-06-19T08:02:56;6.35;;;5.68;;
43877;SDS011;29815;48.184;11.268;2023-06-19T08:05:26;5.78;;;5.20;;
43877;SDS011;29815;48.184;11.268;2023-06-19T08:07:55;6.97;;;6.25;;
43877;SDS011;29815;48.184;11.268;2023-06-19T08:10:28;6.03;;;4.82;;
43877;SDS011;29815;48.184;11.268;2023-06-19T08:12:58;7.13;;;5.43;;
43877;SDS011;29815;48.184;11.268;2023-06-19T08:15:27;7.28;;;6.30;;
43877;SDS011;29815;48.184;11.268;2023-06-19T08:17:57;5.72;;;5.18;;
43877;SDS011;29815;48.184;11.268;2023-06-19T08:20:27;7.57;;;5.50;;
43877;SDS011;29815;48.184;11.268;2023-06-19T08:22:57;8.40;;;6.43;;
43877;SDS011;29815;48.184;11.268;2023-06-19T08:25:28;7.40;;;6.70;;
43877;SDS011;29815;48.184;11.268;2023-06-19T08:27:57;6.60;;;6.00;;
43877;SDS011;29815;48.184;11.268;2023-06-19T08:30:27;7.70;;;6.45;;
43877;SDS011;29815;48.184;11.268;2023-06-19T08:32:57;6.70;;;5.50;;
43877;SDS011;29815;48.184;11.268;2023-06-19T08:35:26;7.20;;;6.10;;
43877;SDS011;29815;48.184;11.268;2023-06-19T08:37:56;12.50;;;6.13;;
43877;SDS011;29815;48.184;11.268;2023-06-19T08:40:25;6.30;;;5.53;;
43877;SDS011;29815;48.184;11.268;2023-06-19T08:42:56;6.85;;;5.80;;
43877;SDS011;29815;48.184;11.268;2023-06-19T08:45:26;6.68;;;5.13;;
43877;SDS011;29815;48.184;11.268;2023-06-19T08:47:59;5.80;;;5.30;;
43877;SDS011;29815;48.184;11.268;2023-06-19T08:50:37;6.30;;;5.70;;
43877;SDS011;29815;48.184;11.268;2023-06-19T08:53:07;6.38;;;5.88;;
43877;SDS011;29815;48.184;11.268;2023-06-19T08:55:38;6.22;;;5.63;;
43877;SDS011;29815;48.184;11.268;2023-06-19T08:58:09;6.13;;;5.63;;
43877;SDS011;29815;48.184;11.268;2023-06-19T09:00:39;6.18;;;5.57;;
43877;SDS011;29815;48.184;11.268;2023-06-19T09:03:09;7.10;;;5.80;;
43877;SDS011;29815;48.184;11.268;2023-06-19T09:05:41;6.57;;;5.50;;
43877;SDS011;29815;48.184;11.268;2023-06-19T09:08:18;5.78;;;5.13;;
43877;SDS011;29815;48.184;11.268;2023-06-19T09:10:57;7.13;;;5.53;;
43877;SDS011;29815;48.184;11.268;2023-06-19T09:13:29;5.63;;;5.10;;
43877;SDS011;29815;48.184;11.268;2023-06-19T09:16:02;6.10;;;5.45;;
43877;SDS011;29815;48.184;11.268;2023-06-19T09:18:45;6.60;;;5.07;;
43877;SDS011;29815;48.184;11.268;2023-06-19T09:21:19;9.10;;;5.57;;
43877;SDS011;29815;48.184;11.268;2023-06-19T09:23:50;8.00;;;5.05;;
43877;SDS011;29815;48.184;11.268;2023-06-19T09:26:29;8.80;;;6.03;;
43877;SDS011;29815;48.184;11.268;2023-06-19T09:28:58;5.78;;;5.03;;
43877;SDS011;29815;48.184;11.268;2023-06-19T09:31:43;6.00;;;5.32;;
43877;SDS011;29815;48.184;11.268;2023-06-19T09:34:12;5.70;;;5.15;;
43877;SDS011;29815;48.184;11.268;2023-06-19T09:36:42;5.43;;;4.93;;
43877;SDS011;29815;48.184;11.268;2023-06-19T09:39:15;4.97;;;4.57;;
43877;SDS011;29815;48.184;11.268;2023-06-19T09:41:47;5.10;;;4.65;;
43877;SDS011;29815;48.184;11.268;2023-06-19T09:44:21;6.43;;;4.60;;
43877;SDS011;29815;48.184;11.268;2023-06-19T09:46:52;5.35;;;4.43;;
43877;SDS011;29815;48.184;11.268;2023-06-19T09:49:23;6.90;;;4.28;;
43877;SDS011;29815;48.184;11.268;2023-06-19T09:51:57;9.95;;;4.88;;
43877;SDS011;29815;48.184;11.268;2023-06-19T09:54:26;6.47;;;4.50;;
43877;SDS011;29815;48.184;11.268;2023-06-19T09:56:58;6.20;;;4.85;;
43877;SDS011;29815;48.184;11.268;2023-06-19T09:59:30;5.72;;;4.72;;
43877;SDS011;29815;48.184;11.268;2023-06-19T10:02:00;6.63;;;5.35;;
43877;SDS011;29815;48.184;11.268;2023-06-19T10:07:16;5.55;;;5.05;;
43877;SDS011;29815;48.184;11.268;2023-06-19T10:09:55;4.63;;;4.18;;
43877;SDS011;29815;48.184;11.268;2023-06-19T10:12:42;5.63;;;4.75;;
43877;SDS011;29815;48.184;11.268;2023-06-19T10:15:17;5.85;;;5.25;;
43877;SDS011;29815;48.184;11.268;2023-06-19T10:17:49;4.97;;;4.57;;
43877;SDS011;29815;48.184;11.268;2023-06-19T10:20:22;7.00;;;5.47;;
43877;SDS011;29815;48.184;11.268;2023-06-19T10:23:01;5.18;;;4.70;;
43877;SDS011;29815;48.184;11.268;2023-06-19T10:25:35;5.38;;;4.80;;
43877;SDS011;29815;48.184;11.268;2023-06-19T10:28:19;5.82;;;5.25;;
43877;SDS011;29815;48.184;11.268;2023-06-19T10:30:54;6.60;;;5.57;;
43877;SDS011;29815;48.184;11.268;2023-06-19T10:33:26;8.27;;;4.95;;
43877;SDS011;29815;48.184;11.268;2023-06-19T10:35:58;5.82;;;5.32;;
43877;SDS011;29815;48.184;11.268;2023-06-19T10:38:29;6.03;;;5.30;;
43877;SDS011;29815;48.184;11.268;2023-06-19T10:40:59;5.82;;;5.22;;
43877;SDS011;29815;48.184;11.268;2023-06-19T10:43:32;8.57;;;5.70;;
43877;SDS011;29815;48.184;11.268;2023-06-19T10:46:02;6.63;;;5.40;;
43877;SDS011;29815;48.184;11.268;2023-06-19T10:48:32;7.05;;;5.22;;
43877;SDS011;29815;48.184;11.268;2023-06-19T10:51:02;7.50;;;5.60;;
43877;SDS011;29815;48.184;11.268;2023-06-19T10:53:32;6.63;;;5.93;;
43877;SDS011;29815;48.184;11.268;2023-06-19T10:56:02;7.95;;;5.63;;
43877;SDS011;29815;48.184;11.268;2023-06-19T10:58:34;5.45;;;4.95;;
43877;SDS011;29815;48.184;11.268;2023-06-19T11:01:04;7.38;;;5.22;;
43877;SDS011;29815;48.184;11.268;2023-06-19T11:03:33;8.82;;;5.35;;
43877;SDS011;29815;48.184;11.268;2023-06-19T11:06:03;5.10;;;4.70;;
43877;SDS011;29815;48.184;11.268;2023-06-19T11:08:33;6.32;;;4.85;;
43877;SDS011;29815;48.184;11.268;2023-06-19T11:11:03;5.90;;;5.38;;
43877;SDS011;29815;48.184;11.268;2023-06-19T11:13:32;5.97;;;5.38;;
43877;SDS011;29815;48.184;11.268;2023-06-19T11:16:04;5.20;;;4.70;;
43877;SDS011;29815;48.184;11.268;2023-06-19T11:18:33;5.57;;;5.07;;
43877;SDS011;29815;48.184;11.268;2023-06-19T11:21:03;8.40;;;5.20;;
43877;SDS011;29815;48.184;11.268;2023-06-19T11:23:33;5.18;;;4.50;;
43877;SDS011;29815;48.184;11.268;2023-06-19T11:26:03;8.95;;;5.88;;
43877;SDS011;29815;48.184;11.268;2023-06-19T11:28:35;5.57;;;5.07;;
43877;SDS011;29815;48.184;11.268;2023-06-19T11:31:04;4.95;;;4.45;;
43877;SDS011;29815;48.184;11.268;2023-06-19T11:33:34;4.78;;;4.10;;
43877;SDS011;29815;48.184;11.268;2023-06-19T11:36:05;5.97;;;5.15;;
43877;SDS011;29815;48.184;11.268;2023-06-19T11:38:35;9.60;;;4.97;;
43877;SDS011;29815;48.184;11.268;2023-06-19T11:41:08;5.00;;;4.30;;
43877;SDS011;29815;48.184;11.268;2023-06-19T11:43:41;7.00;;;4.82;;
43877;SDS011;29815;48.184;11.268;2023-06-19T11:46:10;5.60;;;5.10;;
43877;SDS011;29815;48.184;11.268;2023-06-19T11:48:40;7.07;;;4.88;;
43877;SDS011;29815;48.184;11.268;2023-06-19T11:51:19;4.85;;;4.45;;
43877;SDS011;29815;48.184;11.268;2023-06-19T11:53:49;4.88;;;4.43;;
43877;SDS011;29815;48.184;11.268;2023-06-19T11:56:19;4.15;;;3.75;;
43877;SDS011;29815;48.184;11.268;2023-06-19T11:58:50;7.28;;;2.83;;
43877;SDS011;29815;48.184;11.268;2023-06-19T12:01:20;4.55;;;4.18;;
43877;SDS011;29815;48.184;11.268;2023-06-19T12:03:49;5.00;;;4.50;;
43877;SDS011;29815;48.184;11.268;2023-06-19T12:06:19;5.00;;;4.40;;
43877;SDS011;29815;48.184;11.268;2023-06-19T12:08:50;4.68;;;4.28;;
43877;SDS011;29815;48.184;11.268;2023-06-19T12:11:19;5.28;;;4.78;;
43877;SDS011;29815;48.184;11.268;2023-06-19T12:13:50;8.55;;;4.38;;
43877;SDS011;29815;48.184;11.268;2023-06-19T12:16:23;5.18;;;4.20;;
43877;SDS011;29815;48.184;11.268;2023-06-19T12:18:53;5.47;;;4.97;;
43877;SDS011;29815;48.184;11.268;2023-06-19T12:21:23;5.07;;;4.57;;
43877;SDS011;29815;48.184;11.268;2023-06-19T12:24:05;4.50;;;4.10;;
43877;SDS011;29815;48.184;11.268;2023-06-19T12:26:35;5.50;;;3.83;;
43877;SDS011;29815;48.184;11.268;2023-06-19T12:29:06;5.93;;;3.50;;
43877;SDS011;29815;48.184;11.268;2023-06-19T12:31:36;4.27;;;3.87;;
43877;SDS011;29815;48.184;11.268;2023-06-19T12:34:05;4.30;;;3.90;;
43877;SDS011;29815;48.184;11.268;2023-06-19T12:36:38;5.00;;;3.88;;
43877;SDS011;29815;48.184;11.268;2023-06-19T12:39:08;5.80;;;3.70;;
43877;SDS011;29815;48.184;11.268;2023-06-19T12:41:43;5.10;;;4.20;;
43877;SDS011;29815;48.184;11.268;2023-06-19T12:44:14;5.20;;;3.55;;
43877;SDS011;29815;48.184;11.268;2023-06-19T12:46:44;3.40;;;3.10;;
43877;SDS011;29815;48.184;11.268;2023-06-19T12:49:13;3.20;;;2.70;;
43877;SDS011;29815;48.184;11.268;2023-06-19T12:51:43;3.28;;;2.60;;
43877;SDS011;29815;48.184;11.268;2023-06-19T12:54:13;3.40;;;2.90;;
43877;SDS011;29815;48.184;11.268;2023-06-19T12:56:42;3.58;;;2.95;;
43877;SDS011;29815;48.184;11.268;2023-06-19T12:59:12;4.00;;;3.40;;
43877;SDS011;29815;48.184;11.268;2023-06-19T13:01:43;3.50;;;2.70;;
43877;SDS011;29815;48.184;11.268;2023-06-19T13:04:13;3.22;;;2.92;;
43877;SDS011;29815;48.184;11.268;2023-06-19T13:06:43;4.18;;;3.15;;
43877;SDS011;29815;48.184;11.268;2023-06-19T13:09:12;3.47;;;3.10;;
43877;SDS011;29815;48.184;11.268;2023-06-19T13:11:42;3.67;;;3.38;;
43877;SDS011;29815;48.184;11.268;2023-06-19T13:14:12;4.25;;;3.30;;
43877;SDS011;29815;48.184;11.268;2023-06-19T13:16:43;3.93;;;2.30;;
43877;SDS011;29815;48.184;11.268;2023-06-19T13:19:13;4.70;;;3.45;;
43877;SDS011;29815;48.184;11.268;2023-06-19T13:21:43;4.47;;;3.13;;
43877;SDS011;29815;48.184;11.268;2023-06-19T13:24:13;3.25;;;3.00;;
43877;SDS011;29815;48.184;11.268;2023-06-19T13:26:43;3.22;;;2.92;;
43877;SDS011;29815;48.184;11.268;2023-06-19T13:29:14;3.13;;;2.90;;
43877;SDS011;29815;48.184;11.268;2023-06-19T13:31:44;3.58;;;3.28;;
43877;SDS011;29815;48.184;11.268;2023-06-19T13:34:13;3.33;;;3.08;;
43877;SDS011;29815;48.184;11.268;2023-06-19T13:36:43;3.13;;;2.83;;
43877;SDS011;29815;48.184;11.268;2023-06-19T13:39:16;3.72;;;3.42;;
43877;SDS011;29815;48.184;11.268;2023-06-19T13:41:46;3.17;;;2.88;;
43877;SDS011;29815;48.184;11.268;2023-06-19T13:44:18;3.33;;;2.53;;
43877;SDS011;29815;48.184;11.268;2023-06-19T13:46:47;3.20;;;2.90;;
43877;SDS011;29815;48.184;11.268;2023-06-19T13:49:17;3.13;;;2.85;;
43877;SDS011;29815;48.184;11.268;2023-06-19T13:51:47;3.42;;;3.13;;
43877;SDS011;29815;48.184;11.268;2023-06-19T13:54:18;3.47;;;2.83;;
43877;SDS011;29815;48.184;11.268;2023-06-19T13:56:48;3.20;;;2.90;;
43877;SDS011;29815;48.184;11.268;2023-06-19T13:59:20;4.60;;;2.85;;
43877;SDS011;29815;48.184;11.268;2023-06-19T14:01:49;3.55;;;3.03;;
43877;SDS011;29815;48.184;11.268;2023-06-19T14:04:19;4.40;;;3.25;;
43877;SDS011;29815;48.184;11.268;2023-06-19T14:06:48;3.83;;;3.42;;
43877;SDS011;29815;48.184;11.268;2023-06-19T14:09:18;3.75;;;3.45;;
43877;SDS011;29815;48.184;11.268;2023-06-19T14:11:47;3.20;;;2.40;;
43877;SDS011;29815;48.184;11.268;2023-06-19T14:14:17;3.33;;;2.92;;
43877;SDS011;29815;48.184;11.268;2023-06-19T14:16:48;3.35;;;3.05;;
43877;SDS011;29815;48.184;11.268;2023-06-19T14:19:18;3.65;;;3.10;;
43877;SDS011;29815;48.184;11.268;2023-06-19T14:21:47;3.70;;;3.40;;
43877;SDS011;29815;48.184;11.268;2023-06-19T14:24:17;3.50;;;3.20;;
43877;SDS011;29815;48.184;11.268;2023-06-19T14:26:46;2.83;;;2.63;;
43877;SDS011;29815;48.184;11.268;2023-06-19T14:29:16;3.55;;;2.92;;
43877;SDS011;29815;48.184;11.268;2023-06-19T14:31:47;4.57;;;3.05;;
43877;SDS011;29815;48.184;11.268;2023-06-19T14:34:20;3.40;;;2.97;;
43877;SDS011;29815;48.184;11.268;2023-06-19T14:36:50;4.72;;;2.92;;
43877;SDS011;29815;48.184;11.268;2023-06-19T14:39:19;3.33;;;2.50;;
43877;SDS011;29815;48.184;11.268;2023-06-19T14:41:49;3.53;;;2.83;;
43877;SDS011;29815;48.184;11.268;2023-06-19T14:44:18;2.60;;;2.40;;
43877;SDS011;29815;48.184;11.268;2023-06-19T14:46:49;4.15;;;2.80;;
43877;SDS011;29815;48.184;11.268;2023-06-19T14:49:20;3.17;;;2.88;;
43877;SDS011;29815;48.184;11.268;2023-06-19T14:51:49;3.17;;;2.88;;